Tiempo atmosférico en la estación meteorológica de Fraga, Huesca (170 m.)



Fecha
DESCASC
Temp. máxima en grados centígrados (hora)
DESCASC
Temp. mínima en grados centígrados (hora)
DESCASC
Temp. media en grados centígrados
DESCASC
Racha de viento máxima en m/sg (hora)
DESCASC
Velocidad máxima media en intervalos de 10 minutos(hora)
DESCASC
Precipitaciones diarias en mm
DESCASC
Precipitaciones de 00:00 a 06:00 en mm
DESCASC
Precipitaciones de 06:00 a 12:00 en mm
DESCASC
Precipitaciones de 12:00 a 18:00 en mm
DESCASC
Precipitaciones de 18:00 a 24:00 en mm
DESCASC
23-05-2018 27.6 (16:50) 13.3 (06:30) 20.5 9.72 (18:50) 5.83 (18:40) 0.2 0.2 0 0 0
22-05-2018 27.5 (18:20) 13.2 (07:30) 20.3 7.5 (20:20) 3.89 (21:00) 1.4 0 0 0 1.4
21-05-2018 26.7 (17:30) 13.2 (06:40) 20 10.83 (19:40) 6.11 (18:10) 8.8 0 0 0 8.8
20-05-2018 24.2 (14:40) 14.8 (00:00) 19.5 8.61 (16:30) 5.28 (16:20) 0.4 0.4 0 0 0
19-05-2018 26.2 (15:20) 15.2 (00:00) 20.7 10.83 (20:00) 7.78 (20:00) 11.4 0 0 0 11.4
18-05-2018 25.7 (16:50) 14.4 (00:00) 20.1 10 (18:10) 5.28 (18:10) 0 0 0 0 0
17-05-2018 27 (17:20) 13.3 (00:00) 20.2 10.83 (18:40) 6.11 (18:50) 0 0 0 0 0
16-05-2018 26.9 (17:40) 10.9 (00:00) 18.9 7.5 (01:30) 4.44 (01:30) 0 0 0 0 0
15-05-2018 25.2 (18:50) 8.7 (00:00) 17 11.11 (19:50) 7.78 (19:40) 0 0 0 0 0
14-05-2018 19.9 (17:00) 8.7 (00:00) 14.3 12.5 (12:50) 8.33 (15:40) 0 0 0 0 0
13-05-2018 18.4 (16:10) 7.5 (00:00) 12.9 18.33 (16:20) 13.33 (17:10) 0 0 0 0 0
12-05-2018 25 (13:30) 11.9 (00:00) 18.4 12.22 (20:20) 8.06 (20:20) 6 0 0 4 2
11-05-2018 27.9 (16:40) 9.5 (07:10) 18.7 9.44 (23:59) 5.83 (23:59) 0 0 0 0 0
10-05-2018 25.3 (18:30) 13.1 (00:00) 19.2 10.83 (20:30) 7.78 (20:30) 0 0 0 0 0
09-05-2018 26.7 (18:00) 12.9 (00:00) 19.8 8.33 (03:20) 5.83 (11:10) 0 0 0 0 0
08-05-2018 28 (17:30) 15.7 (00:00) 21.8 8.33 (21:30) 5 (21:30) 0 0 0 0 0
07-05-2018 26 (16:00) 15.8 (00:00) 20.9 6.67 (17:30) 3.61 (17:40) 0.2 0.2 0 0 0
06-05-2018 23.5 (15:10) 11.4 (00:00) 17.4 5.28 (21:30) 3.61 (21:50) 0 0 0 0 0
05-05-2018 23.3 (15:50) 9.5 (00:00) 16.4 7.5 (19:00) 5.83 (19:00) 0 0 0 0 0
04-05-2018 23.7 (15:30) 8.4 (00:00) 16.1 12.5 (19:30) 7.78 (19:30) 0 0 0 0 0
03-05-2018 22.2 (16:50) 12.1 (00:00) 17.2 14.17 (09:30) 9.44 (17:40) 0 0 0 0 0
02-05-2018 21.3 (18:10) 4.5 (00:00) 12.9 13.89 (21:20) 8.89 (15:40) 0 0 0 0 0
01-05-2018 19.2 (17:10) 6.6 (06:50) 12.9 13.61 (17:40) 9.72 (17:50) 0 0 0 0 0
30-04-2018 17.8 (18:40) 8.5 (00:00) 13.1 9.17 (22:10) 5.56 (14:00) 0 0 0 0 0
29-04-2018 17.2 (00:00) 10.9 (00:00) 14.1 14.44 (16:00) 9.72 (16:00) 13.2 11 0.8 1.4 0
28-04-2018 22.2 (14:30) 12.7 (00:00) 17.5 13.06 (18:40) 6.94 (18:40) 0 0 0 0 0
27-04-2018 27.8 (16:40) 12.3 (00:00) 20 7.78 (23:30) 4.72 (23:59) 0 0 0 0 0
26-04-2018 25.9 (17:20) 12.4 (00:00) 19.1 8.33 (15:20) 5.56 (15:20) 0 0 0 0 0
25-04-2018 29.1 (17:10) 10.8 (00:00) 20 11.11 (18:50) 6.94 (18:50) 0 0 0 0 0
24-04-2018 28.1 (17:20) 11.6 (00:00) 19.9 8.06 (18:40) 5 (18:40) 0 0 0 0 0

Gráficas

Temp. máximas Temp. mínimas Temp. medias Precipitaciones Rachas de viento máximas Velocidades máximas media en intervalos de 10 minutos

Datos horarios

Fecha y hora oficial Temperatura (ºC) Velocidad del viento (km/h) Dirección del viento Racha (km/h) Dirección de racha Precipitación (mm) Presión (hPa) Tendencia (hPa) Humedad (%)
2018-05-23 23:00:00 20 11 Nordeste 16 Nordeste 0 -- -- 80
2018-05-23 22:00:00 20.9 6 Sur 16 Sur 0 -- -- 75
2018-05-23 21:00:00 21.6 10 Sur 28 Sudeste 0 -- -- 70
2018-05-23 20:00:00 22.7 18 Sudeste 32 Sudeste 0 -- -- 63
2018-05-23 19:00:00 23.7 20 Sudeste 35 Sudeste 0 -- -- 55
2018-05-23 18:00:00 25.7 17 Sudeste 34 Sudeste 0 -- -- 50
2018-05-23 17:00:00 27.3 13 Sudeste 31 Sudeste 0 -- -- 44
2018-05-23 16:00:00 27 7 Sudeste 16 Sudeste 0 -- -- 46
2018-05-23 15:00:00 25.9 8 Sur 17 Sudeste 0 -- -- 53
2018-05-23 14:00:00 24.5 6 Sudeste 17 Sur 0 -- -- 60
2018-05-23 13:00:00 22.8 6 Sur 14 Este 0 -- -- 59
2018-05-23 12:00:00 21.6 5 Norte 12 Nordeste 0 -- -- 68
2018-05-23 11:00:00 19.8 3 Noroeste 10 Sur 0 -- -- 77
2018-05-23 10:00:00 17.5 6 Sudoeste 12 Sur 0 -- -- 86
2018-05-23 09:00:00 15.2 0 Calma 4 Noroeste 0 -- -- 90
2018-05-23 08:00:00 14.1 2 Nordeste 4 Oeste 0 -- -- 93
2018-05-23 07:00:00 13.3 0 Calma 6 Noroeste 0 -- -- 92
2018-05-23 06:00:00 13.4 4 Oeste 6 Oeste 0.2 -- -- 92
2018-05-23 05:00:00 14.4 4 Oeste 9 Nordeste 0 -- -- 90
2018-05-23 04:00:00 15.3 3 Oeste 16 Nordeste 0 -- -- 88
2018-05-23 03:00:00 15.7 12 Este 22 Este 0 -- -- 87
2018-05-23 02:00:00 16.4 6 Este 15 Este 0 -- -- 85
2018-05-23 01:00:00 16.8 6 Este 15 Este 0 -- -- 83
2018-05-23 00:00:00 18 9 Este 17 Este 0 -- -- 78
2018-05-22 23:00:00 18 4 Este 17 Sudeste 0 -- -- 79
2018-05-22 22:00:00 18.7 12 Sudeste 20 Este 0 -- -- 72
2018-05-22 21:00:00 18.9 14 Este 27 Sudoeste 1.4 -- -- 72
2018-05-22 20:00:00 24.2 7 Nordeste 18 Este 0 -- -- 49
2018-05-22 19:00:00 26.3 4 Sudoeste 14 Oeste 0 -- -- 40
2018-05-22 18:00:00 27.1 6 Norte 18 Sudoeste 0 -- -- 38
2018-05-22 17:00:00 26.1 6 Sur 22 Sudoeste 0 -- -- 41
2018-05-22 16:00:00 25.4 8 Oeste 19 Oeste 0 -- -- 47
2018-05-22 15:00:00 23.8 8 Sudoeste 18 Sudoeste 0 -- -- 55
2018-05-22 14:00:00 22.6 5 Oeste 15 Sudoeste 0 -- -- 60
2018-05-22 13:00:00 21.4 4 Sur 11 Sudoeste 0 -- -- 64
2018-05-22 12:00:00 20.5 3 Norte 14 Nordeste 0 -- -- 68
2018-05-22 11:00:00 18.7 4 Norte 9 Nordeste 0 -- -- 74
2018-05-22 10:00:00 16.5 2 Norte 6 Noroeste 0 -- -- 87
2018-05-22 09:00:00 14.3 0 Calma 5 Sudeste 0 -- -- 97
2018-05-22 08:00:00 13.3 0 Calma 5 Sudoeste 0 -- -- 96
2018-05-22 07:00:00 13.3 4 Sur 5 Sur 0 -- -- 94
2018-05-22 06:00:00 13.7 4 Noroeste 7 Noroeste 0 -- -- 93
2018-05-22 05:00:00 13.8 4 Norte 6 Norte 0 -- -- 93
2018-05-22 04:00:00 14.3 2 Noroeste 10 Norte 0 -- -- 92
2018-05-22 03:00:00 14.7 4 Norte 12 Noroeste 0 -- -- 92
2018-05-22 02:00:00 15.2 4 Noroeste 10 Este 0 -- -- 90
2018-05-22 01:00:00 15.1 6 Este 13 Este 0 -- -- 90
2018-05-22 00:00:00 15.5 6 Nordeste 13 Sudeste 0 -- -- 90
2018-05-21 23:00:00 16 5 Sur 36 Nordeste 0.4 -- -- 87
2018-05-21 22:00:00 15.9 15 Norte 33 Nordeste 4.2 -- -- 85
2018-05-21 21:00:00 16.6 17 Oeste 29 Oeste 2.2 -- -- 78
2018-05-21 20:00:00 17.5 14 Sudoeste 39 Sudoeste 2 -- -- 76
2018-05-21 19:00:00 23 18 Sudeste 38 Sudeste 0 -- -- 48
2018-05-21 18:00:00 24.5 22 Sudeste 35 Sudeste 0 -- -- 48
2018-05-21 17:00:00 25.9 6 Sudeste 18 Sudeste 0 -- -- 40
2018-05-21 16:00:00 25.5 6 Este 18 Nordeste 0 -- -- 38
2018-05-21 15:00:00 25.2 8 Nordeste 17 Este 0 -- -- 42
2018-05-21 14:00:00 24.5 5 Norte 14 Nordeste 0 -- -- 48
2018-05-21 13:00:00 22.7 6 Sur 12 Sudeste 0 -- -- 51
2018-05-21 12:00:00 21.5 5 Sudeste 13 Nordeste 0 -- -- 60
2018-05-21 11:00:00 20.3 5 Norte 10 Este 0 -- -- 68
2018-05-21 10:00:00 17.9 3 Oeste 7 Sudoeste 0 -- -- 78
2018-05-21 09:00:00 15.9 3 Oeste 5 Oeste 0 -- -- 85
2018-05-21 08:00:00 13.9 4 Noroeste 7 Noroeste 0 -- -- 93
2018-05-21 07:00:00 13.3 0 Calma 3 Noroeste 0 -- -- 92
2018-05-21 06:00:00 13.4 0 Calma 3 Norte 0 -- -- 91
2018-05-21 05:00:00 13.5 2 Norte 6 Oeste 0 -- -- 91
2018-05-21 04:00:00 14 0 Calma 3 Noroeste 0 -- -- 89
2018-05-21 03:00:00 14.6 3 Noroeste 6 Noroeste 0 -- -- 87
2018-05-21 02:00:00 15.5 0 Calma 5 Noroeste 0 -- -- 84
2018-05-21 01:00:00 16.4 0 Calma 8 Noroeste 0 -- -- 79
2018-05-21 00:00:00 17.1 0 Calma 21 Este 0 -- -- 76
2018-05-20 23:00:00 17.7 6 Nordeste 13 Este 0 -- -- 73
2018-05-20 22:00:00 18.6 14 Nordeste 26 Nordeste 0 -- -- 69
2018-05-20 21:00:00 20.2 11 Este 18 Este 0 -- -- 62
2018-05-20 20:00:00 21.7 4 Sudeste 13 Sur 0 -- -- 51
2018-05-20 19:00:00 21.7 7 Sur 17 Sur 0 -- -- 56
2018-05-20 18:00:00 21.1 11 Sur 23 Sur 0 -- -- 57
2018-05-20 17:00:00 20.5 17 Sur 31 Sur 0 -- -- 59
2018-05-20 16:00:00 22.2 7 Sudeste 23 Sudeste 0 -- -- 58
2018-05-20 15:00:00 23.3 14 Este 24 Nordeste 0 -- -- 61
2018-05-20 14:00:00 22.8 6 Nordeste 15 Noroeste 0 -- -- 65
2018-05-20 13:00:00 20.9 5 Nordeste 12 Nordeste 0 -- -- 67
2018-05-20 12:00:00 19 3 Noroeste 7 Noroeste 0 -- -- 74
2018-05-20 11:00:00 17.5 4 Oeste 8 Oeste 0 -- -- 82
2018-05-20 10:00:00 16.7 4 Oeste 9 Sudoeste 0 -- -- 87
2018-05-20 09:00:00 15.7 4 Oeste 6 Oeste 0 -- -- 91
2018-05-20 08:00:00 15.2 2 Noroeste 3 Norte 0 -- -- 92
2018-05-20 07:00:00 14.8 0 Calma 5 Oeste 0 -- -- 92
2018-05-20 06:00:00 15 0 Calma 3 Noroeste 0 -- -- 91
2018-05-20 05:00:00 15.1 3 Norte 6 Norte 0 -- -- 91
2018-05-20 04:00:00 15.2 2 Oeste 7 Oeste 0 -- -- 91
2018-05-20 03:00:00 15.3 4 Norte 9 Norte 0 -- -- 89
2018-05-20 02:00:00 15.4 3 Norte 9 Norte 0 -- -- 87
2018-05-20 01:00:00 15.4 2 Noroeste 8 Oeste 0.4 -- -- 89
2018-05-20 00:00:00 15.6 0 Calma 13 Sur 4.2 -- -- 90
2018-05-19 23:00:00 16.3 15 Este 31 Este 4.4 -- -- 78
2018-05-19 22:00:00 16.3 18 Nordeste 36 Nordeste 2.8 -- -- 81
2018-05-19 21:00:00 18.2 19 Noroeste 37 Nordeste 0 -- -- 73
2018-05-19 20:00:00 21.1 28 Nordeste 39 Nordeste 0 -- -- 55
2018-05-19 19:00:00 24.3 12 Sudeste 26 Sudeste 0 -- -- 41
2018-05-19 18:00:00 24.1 13 Sudeste 27 Sur 0 -- -- 42
2018-05-19 17:00:00 25 19 Sur 36 Sur 0 -- -- 43
2018-05-19 16:00:00 25.6 11 Sudoeste 30 Sudeste 0 -- -- 41
2018-05-19 15:00:00 25.8 8 Oeste 19 Oeste 0 -- -- 40
2018-05-19 14:00:00 24.8 7 Sudoeste 17 Sudoeste 0 -- -- 44
2018-05-19 13:00:00 23.2 10 Sudeste 19 Sudeste 0 -- -- 49
2018-05-19 12:00:00 22.1 5 Sur 16 Sur 0 -- -- 55
2018-05-19 11:00:00 19.6 5 Sur 9 Sur 0 -- -- 69
2018-05-19 10:00:00 17.2 0 Calma 8 Sur 0 -- -- 76
2018-05-19 09:00:00 16.2 7 Sur 9 Sur 0 -- -- 79
2018-05-19 08:00:00 15.9 3 Norte 5 Norte 0 -- -- 79
2018-05-19 07:00:00 15.4 4 Norte 13 Noroeste 0 -- -- 80
2018-05-19 06:00:00 15.5 5 Noroeste 8 Noroeste 0 -- -- 81
2018-05-19 05:00:00 16.4 4 Oeste 5 Oeste 0 -- -- 77
2018-05-19 04:00:00 16.8 3 Norte 5 Nordeste 0 -- -- 73
2018-05-19 03:00:00 16.8 2 Sudoeste 10 Nordeste 0 -- -- 72
2018-05-19 02:00:00 17.1 8 Este 22 Nordeste 0 -- -- 70
2018-05-19 01:00:00 17.2 12 Este 26 Nordeste 0 -- -- 69
2018-05-19 00:00:00 18.3 17 Nordeste 23 Nordeste 0 -- -- 66
2018-05-18 23:00:00 19.4 8 Este 22 Sudeste 0 -- -- 57
2018-05-18 22:00:00 20.2 12 Sudeste 24 Sudeste 0 -- -- 53
2018-05-18 21:00:00 21.5 10 Sudeste 29 Sudeste 0 -- -- 48
2018-05-18 20:00:00 23 17 Sudeste 28 Este 0 -- -- 45
2018-05-18 19:00:00 24.5 12 Sudeste 36 Sudeste 0 -- -- 42
2018-05-18 18:00:00 24.2 16 Este 31 Este 0 -- -- 44
2018-05-18 17:00:00 25.6 8 Sudoeste 20 Sudeste 0 -- -- 38
2018-05-18 16:00:00 25.1 11 Sur 25 Sudoeste 0 -- -- 40
2018-05-18 15:00:00 24.8 5 Sudoeste 23 Sudoeste 0 -- -- 41
2018-05-18 14:00:00 23.5 9 Sur 22 Sur 0 -- -- 45
2018-05-18 13:00:00 22.2 12 Sur 23 Sudeste 0 -- -- 49
2018-05-18 12:00:00 21.3 7 Sur 14 Sudoeste 0 -- -- 51
2018-05-18 11:00:00 19.8 5 Oeste 13 Oeste 0 -- -- 60
2018-05-18 10:00:00 17.8 3 Sudeste 6 Sudeste 0 -- -- 66
2018-05-18 09:00:00 16 2 Oeste 6 Noroeste 0 -- -- 78
2018-05-18 08:00:00 15 4 Noroeste 6 Noroeste 0 -- -- 81
2018-05-18 07:00:00 14.5 2 Oeste 9 Noroeste 0 -- -- 81
2018-05-18 06:00:00 14.6 4 Oeste 8 Oeste 0 -- -- 80
2018-05-18 05:00:00 16 2 Oeste 9 Nordeste 0 -- -- 71
2018-05-18 04:00:00 16.8 6 Nordeste 10 Nordeste 0 -- -- 69
2018-05-18 03:00:00 17.2 7 Este 14 Sudeste 0 -- -- 62
2018-05-18 02:00:00 17.2 8 Este 16 Este 0 -- -- 61
2018-05-18 01:00:00 17.2 5 Sudeste 14 Este 0 -- -- 59
2018-05-18 00:00:00 17.7 8 Sudeste 29 Sudeste 0 -- -- 56
2018-05-17 23:00:00 18.5 19 Sudeste 28 Sudeste 0 -- -- 53
2018-05-17 22:00:00 19.3 15 Nordeste 31 Sur 0 -- -- 46
2018-05-17 21:00:00 20.5 17 Sur 35 Sudeste 0 -- -- 43
2018-05-17 20:00:00 22.3 21 Sur 36 Sur 0 -- -- 40
2018-05-17 19:00:00 24.2 19 Sudeste 39 Sudeste 0 -- -- 40
2018-05-17 18:00:00 26 8 Sur 16 Sudeste 0 -- -- 35
2018-05-17 17:00:00 26.1 6 Noroeste 16 Sudoeste 0 -- -- 36
2018-05-17 16:00:00 24.9 6 Sur 17 Sur 0 -- -- 41
2018-05-17 15:00:00 23.3 7 Sur 19 Sur 0 -- -- 47
2018-05-17 14:00:00 21.2 7 Sur 18 Sur 0 -- -- 54
2018-05-17 13:00:00 18.8 6 Sudoeste 16 Sur 0 -- -- 60
2018-05-17 12:00:00 16.4 7 Sudoeste 13 Sudoeste 0 -- -- 70
2018-05-17 11:00:00 15 3 Sudoeste 7 Oeste 0 -- -- 74
2018-05-17 10:00:00 14.3 4 Oeste 8 Oeste 0 -- -- 76
2018-05-17 09:00:00 13.7 0 Calma 9 Sur 0 -- -- 78
2018-05-17 08:00:00 13.3 6 Sur 10 Sudoeste 0 -- -- 80
2018-05-17 07:00:00 13.7 4 Sudoeste 14 Sur 0 -- -- 76
2018-05-17 06:00:00 14.3 8 Sur 12 Sur 0 -- -- 74
2018-05-17 05:00:00 14.8 5 Sur 12 Noroeste 0 -- -- 72
2018-05-17 04:00:00 15.6 10 Oeste 13 Oeste 0 -- -- 70
2018-05-17 03:00:00 16.1 2 Oeste 11 Sur 0 -- -- 67
2018-05-17 02:00:00 17.2 6 Sudoeste 12 Noroeste 0 -- -- 62
2018-05-17 01:00:00 18.1 5 Oeste 20 Sudeste 0 -- -- 57
2018-05-17 00:00:00 19.4 8 Sudeste 19 Sudeste 0 -- -- 52
2018-05-16 23:00:00 20 15 Sudeste 24 Sudeste 0 -- -- 50
2018-05-16 22:00:00 21.3 11 Sudeste 23 Sudeste 0 -- -- 48
2018-05-16 21:00:00 23.8 6 Este 11 Este 0 -- -- 39
2018-05-16 20:00:00 26.2 3 Nordeste 13 Nordeste 0 -- -- 34
2018-05-16 19:00:00 26.1 3 Norte 17 Sudoeste 0 -- -- 33
2018-05-16 18:00:00 26.6 4 Norte 18 Oeste 0 -- -- 31
2018-05-16 17:00:00 26 7 Norte 18 Oeste 0 -- -- 35
2018-05-16 16:00:00 25.1 9 Oeste 19 Sudoeste 0 -- -- 38
2018-05-16 15:00:00 23.9 9 Oeste 21 Oeste 0 -- -- 40
2018-05-16 14:00:00 22.3 8 Sudoeste 22 Oeste 0 -- -- 43
2018-05-16 13:00:00 20.2 6 Sudoeste 18 Oeste 0 -- -- 46
2018-05-16 12:00:00 18.1 6 Sudoeste 18 Oeste 0 -- -- 51
2018-05-16 11:00:00 15.8 7 Sur 17 Oeste 0 -- -- 56
2018-05-16 10:00:00 14.7 6 Sudoeste 23 Sudoeste 0 -- -- 60
2018-05-16 09:00:00 12.9 7 Sudoeste 14 Sur 0 -- -- 65
2018-05-16 08:00:00 11.4 7 Sudoeste 13 Sudoeste 0 -- -- 68
2018-05-16 07:00:00 10.9 9 Sudoeste 16 Sudoeste 0 -- -- 69
2018-05-16 06:00:00 11.6 7 Sudoeste 16 Sudoeste 0 -- -- 67
2018-05-16 05:00:00 12.2 10 Sudoeste 20 Sudoeste 0 -- -- 67
2018-05-16 04:00:00 13.1 9 Sudoeste 18 Sur 0 -- -- 66
2018-05-16 03:00:00 13.8 11 Sudoeste 20 Sudoeste 0 -- -- 64
2018-05-16 02:00:00 14.4 8 Sudoeste 27 Sudoeste 0 -- -- 62
2018-05-16 01:00:00 14.9 6 Sudoeste 18 Sudoeste 0 -- -- 61
2018-05-16 00:00:00 16 10 Sur 23 Sudoeste 0 -- -- 58
2018-05-15 23:00:00 16.9 10 Sudoeste 32 Oeste 0 -- -- 56
2018-05-15 22:00:00 17.7 14 Oeste 31 Sudoeste 0 -- -- 54
2018-05-15 21:00:00 19.9 16 Oeste 33 Oeste 0 -- -- 49
2018-05-15 20:00:00 22.7 17 Oeste 40 Oeste 0 -- -- 43
2018-05-15 19:00:00 25 14 Oeste 31 Oeste 0 -- -- 39
2018-05-15 18:00:00 24.9 18 Oeste 32 Oeste 0 -- -- 38
2018-05-15 17:00:00 24.7 14 Sudoeste 35 Oeste 0 -- -- 38
2018-05-15 16:00:00 24.2 15 Oeste 31 Oeste 0 -- -- 38
2018-05-15 15:00:00 22.8 15 Sudoeste 34 Oeste 0 -- -- 39
2018-05-15 14:00:00 21.4 16 Sudoeste 36 Sudoeste 0 -- -- 42
2018-05-15 13:00:00 19.9 13 Oeste 28 Oeste 0 -- -- 45
2018-05-15 12:00:00 17.9 13 Sudoeste 28 Oeste 0 -- -- 50
2018-05-15 11:00:00 16.4 12 Oeste 26 Oeste 0 -- -- 53
2018-05-15 10:00:00 14.1 11 Oeste 21 Oeste 0 -- -- 59
2018-05-15 09:00:00 11.7 10 Sudoeste 21 Sudoeste 0 -- -- 67
2018-05-15 08:00:00 10 10 Sudoeste 19 Sudoeste 0 -- -- 72
2018-05-15 07:00:00 9 12 Sudoeste 19 Sudoeste 0 -- -- 73
2018-05-15 06:00:00 9 7 Sudoeste 15 Oeste 0 -- -- 71
2018-05-15 05:00:00 9.1 6 Sudoeste 14 Sur 0 -- -- 68
2018-05-15 04:00:00 9.7 8 Sur 22 Sudoeste 0 -- -- 64
2018-05-15 03:00:00 10.1 10 Sudoeste 18 Oeste 0 -- -- 62
2018-05-15 02:00:00 10.7 6 Sudoeste 16 Sudoeste 0 -- -- 59
2018-05-15 01:00:00 11.5 4 Oeste 24 Sudoeste 0 -- -- 59
2018-05-15 00:00:00 12.6 12 Sudoeste 21 Sudoeste 0 -- -- 56
2018-05-14 23:00:00 14 9 Oeste 31 Oeste 0 -- -- 52
2018-05-14 22:00:00 15 17 Oeste 36 Noroeste 0 -- -- 49
2018-05-14 21:00:00 16.4 18 Noroeste 40 Noroeste 0 -- -- 45
2018-05-14 20:00:00 17.1 25 Oeste 39 Oeste 0 -- -- 44
2018-05-14 19:00:00 18 21 Oeste 42 Oeste 0 -- -- 44
2018-05-14 18:00:00 19.3 20 Noroeste 39 Oeste 0 -- -- 36
2018-05-14 17:00:00 19.9 23 Oeste 41 Oeste 0 -- -- 34
2018-05-14 16:00:00 18.5 23 Noroeste 44 Oeste 0 -- -- 37
2018-05-14 15:00:00 19 26 Noroeste 39 Noroeste 0 -- -- 38
2018-05-14 14:00:00 17.7 26 Noroeste 44 Oeste 0 -- -- 40
2018-05-14 13:00:00 16.5 26 Noroeste 45 Oeste 0 -- -- 42
2018-05-14 12:00:00 15.8 26 Noroeste 40 Oeste 0 -- -- 44
2018-05-14 11:00:00 14.6 22 Noroeste 38 Noroeste 0 -- -- 48
2018-05-14 10:00:00 12.8 24 Noroeste 40 Noroeste 0 -- -- 57
2018-05-14 09:00:00 11.5 22 Noroeste 36 Noroeste 0 -- -- 61
2018-05-14 08:00:00 9.4 5 Noroeste 25 Noroeste 0 -- -- 69
2018-05-14 07:00:00 8.8 13 Noroeste 22 Noroeste 0 -- -- 71
2018-05-14 06:00:00 9.2 16 Noroeste 34 Oeste 0 -- -- 68
2018-05-14 05:00:00 9.7 24 Noroeste 39 Noroeste 0 -- -- 65
2018-05-14 04:00:00 9.9 10 Noroeste 27 Noroeste 0 -- -- 63
2018-05-14 03:00:00 10.7 19 Oeste 28 Noroeste 0 -- -- 59
2018-05-14 02:00:00 10.4 11 Noroeste 27 Noroeste 0 -- -- 60
2018-05-14 01:00:00 11.4 23 Noroeste 36 Noroeste 0 -- -- 55
2018-05-11 20:00:00 25.5 10 Sudeste 22 Sur 0 -- -- 47
2018-05-11 19:00:00 27.2 9 Noroeste 22 Noroeste 0 -- -- 35
2018-05-11 18:00:00 27.4 7 Norte 15 Oeste 0 -- -- 35
2018-05-11 17:00:00 27.7 6 Oeste 15 Nordeste 0 -- -- 37
2018-05-11 16:00:00 26.7 8 Oeste 15 Oeste 0 -- -- 41
2018-05-11 15:00:00 24.6 8 Sudoeste 14 Oeste 0 -- -- 45
2018-05-11 14:00:00 23.2 5 Sudoeste 12 Norte 0 -- -- 48
2018-05-11 13:00:00 21.5 6 Oeste 13 Este 0 -- -- 52
2018-05-11 12:00:00 19.3 5 Sudeste 14 Sur 0 -- -- 57
2018-05-11 11:00:00 17.5 4 Sur 11 Sur 0 -- -- 59
2018-05-11 10:00:00 14.9 3 Noroeste 8 Oeste 0 -- -- 67
2018-05-11 09:00:00 12 3 Oeste 5 Oeste 0 -- -- 77
2018-05-11 08:00:00 10.3 0 Calma 3 Oeste 0 -- -- 81
2018-05-11 07:00:00 9.6 0 Calma 6 Noroeste 0 -- -- 82
2018-05-11 06:00:00 10.3 3 Oeste 6 Sudeste 0 -- -- 77
2018-05-11 05:00:00 11.6 0 Calma 6 Sur 0 -- -- 70
2018-05-11 04:00:00 12.5 4 Sur 13 Sudoeste 0 -- -- 67
2018-05-11 03:00:00 13.2 3 Sudoeste 10 Sur 0 -- -- 66
2018-05-11 02:00:00 14.1 7 Sudoeste 12 Sudoeste 0 -- -- 63
2018-05-11 01:00:00 14.7 5 Oeste 9 Sudoeste 0 -- -- 62
2018-05-11 00:00:00 15.7 10 Sudoeste 16 Sudoeste 0 -- -- 60
2018-05-10 23:00:00 17 8 Sur 13 Sur 0 -- -- 57
2018-05-10 22:00:00 18.4 11 Noroeste 31 Oeste 0 -- -- 52
2018-05-10 21:00:00 20.4 21 Oeste 39 Oeste 0 -- -- 46
2018-05-10 20:00:00 22.8 26 Oeste 38 Oeste 0 -- -- 40
2018-05-10 19:00:00 25.2 12 Oeste 18 Noroeste 0 -- -- 35
2018-05-10 18:00:00 24.2 10 Sur 23 Sur 0 -- -- 35
2018-05-10 17:00:00 24.8 6 Oeste 22 Oeste 0 -- -- 35
2018-05-10 16:00:00 23.4 12 Sudoeste 25 Oeste 0 -- -- 36
2018-05-10 15:00:00 22.4 7 Sudoeste 24 Sur 0 -- -- 42
2018-05-10 14:00:00 20.8 10 Oeste 26 Oeste 0 -- -- 46
2018-05-10 13:00:00 20.1 10 Sudoeste 23 Sudoeste 0 -- -- 48
2018-05-10 12:00:00 18.5 10 Oeste 28 Oeste 0 -- -- 52
2018-05-10 11:00:00 17.6 18 Oeste 28 Oeste 0 -- -- 52
2018-05-10 10:00:00 16.1 17 Noroeste 24 Noroeste 0 -- -- 59
2018-05-10 09:00:00 15 11 Oeste 19 Noroeste 0 -- -- 64
2018-05-10 08:00:00 14.1 5 Sudoeste 17 Sudoeste 0 -- -- 67
2018-05-10 07:00:00 13.2 9 Sudoeste 16 Sudoeste 0 -- -- 71
2018-05-10 06:00:00 13.4 9 Sudoeste 17 Sudoeste 0 -- -- 69
2018-05-10 05:00:00 13.8 9 Sudoeste 19 Sudoeste 0 -- -- 68
2018-05-10 04:00:00 14.1 5 Oeste 20 Sudoeste 0 -- -- 68
2018-05-10 03:00:00 14.5 8 Sudoeste 21 Oeste 0 -- -- 71
2018-05-10 02:00:00 15.4 8 Sudoeste 20 Sudoeste 0 -- -- 68
2018-05-10 01:00:00 16.6 6 Sudoeste 14 Noroeste 0 -- -- 64
2018-05-10 00:00:00 17.9 10 Oeste 20 Noroeste 0 -- -- 62
2018-05-09 23:00:00 19.7 9 Norte 18 Noroeste 0 -- -- 56
2018-05-09 22:00:00 21.1 13 Noroeste 17 Oeste 0 -- -- 56
2018-05-09 21:00:00 23.7 9 Sudoeste 19 Oeste 0 -- -- 43
2018-05-09 20:00:00 25.4 6 Sudoeste 21 Sudoeste 0 -- -- 38
2018-05-09 19:00:00 26.3 7 Oeste 23 Sudoeste 0 -- -- 40
2018-05-09 18:00:00 26.7 8 Oeste 18 Oeste 0 -- -- 40
2018-05-09 17:00:00 25.6 6 Noroeste 17 Noroeste 0 -- -- 46
2018-05-09 16:00:00 24.5 7 Sudoeste 18 Oeste 0 -- -- 50
2018-05-09 15:00:00 23.2 6 Oeste 21 Este 0 -- -- 54
2018-05-09 14:00:00 21.2 9 Noroeste 22 Noroeste 0 -- -- 58
2018-05-09 13:00:00 19.4 5 Noroeste 24 Noroeste 0 -- -- 61
2018-05-09 12:00:00 18.1 11 Oeste 28 Oeste 0 -- -- 60
2018-05-09 11:00:00 17.1 11 Oeste 25 Oeste 0 -- -- 63
2018-05-09 10:00:00 16.4 9 Oeste 20 Oeste 0 -- -- 68
2018-05-09 09:00:00 14.5 11 Oeste 17 Oeste 0 -- -- 74
2018-05-09 08:00:00 13.2 10 Sudoeste 21 Oeste 0 -- -- 79
2018-05-09 07:00:00 13 6 Sudoeste 22 Sudoeste 0 -- -- 80
2018-05-09 06:00:00 13.1 8 Sudoeste 19 Sur 0 -- -- 81
2018-05-09 05:00:00 13.6 5 Sur 15 Sudoeste 0 -- -- 81
2018-05-09 04:00:00 14.4 9 Oeste 30 Sudoeste 0 -- -- 78
2018-05-09 03:00:00 14.9 12 Sur 23 Sur 0 -- -- 77
2018-05-09 02:00:00 15.6 9 Sudoeste 19 Sudoeste 0 -- -- 76
2018-05-09 01:00:00 17.2 8 Oeste 24 Oeste 0 -- -- 74
2018-05-09 00:00:00 19.2 9 Oeste 18 Oeste 0 -- -- 66
2018-05-08 23:00:00 20.2 10 Sudoeste 19 Sur 0 -- -- 62
2018-05-08 22:00:00 21.3 12 Sudeste 30 Sudeste 0 -- -- 64
2018-05-08 21:00:00 24.5 5 Sudeste 13 Sudeste 0 -- -- 49
2018-05-08 20:00:00 25.6 8 Este 16 Nordeste 0 -- -- 47
2018-05-08 19:00:00 27.5 7 Oeste 16 Nordeste 0 -- -- 42
2018-05-08 18:00:00 27.3 9 Norte 21 Nordeste 0 -- -- 42
2018-05-08 17:00:00 27.1 6 Norte 14 Norte 0 -- -- 43
2018-05-08 16:00:00 26.2 7 Oeste 18 Norte 0 -- -- 45
2018-05-08 15:00:00 25 6 Oeste 17 Noroeste 0 -- -- 47
2018-05-08 14:00:00 24.3 11 Norte 19 Nordeste 0 -- -- 51
2018-05-08 13:00:00 21.8 6 Sur 17 Sur 0 -- -- 58
2018-05-08 12:00:00 21.3 6 Sudeste 18 Sur 0 -- -- 59
2018-05-08 11:00:00 19.5 5 Sur 11 Sudoeste 0 -- -- 72
2018-05-08 10:00:00 17 2 Sur 6 Nordeste 0 -- -- 81
2018-05-08 09:00:00 16.5 4 Oeste 6 Oeste 0 -- -- 85
2018-05-08 08:00:00 16 4 Nordeste 6 Nordeste 0 -- -- 87
2018-05-08 07:00:00 15.7 0 Calma 6 Oeste 0 -- -- 85
2018-05-08 06:00:00 15.7 0 Calma 6 Oeste 0 -- -- 85
2018-05-08 05:00:00 15.9 4 Oeste 9 Noroeste 0 -- -- 84
2018-05-08 04:00:00 16.5 0 Calma 14 Noroeste 0 -- -- 81
2018-05-08 03:00:00 17.1 5 Norte 10 Norte 0 -- -- 79
2018-05-08 02:00:00 17.2 4 Noroeste 14 Noroeste 0 -- -- 82
2018-05-08 01:00:00 17.7 4 Nordeste 12 Sur 0 -- -- 82
2018-05-08 00:00:00 18 5 Sur 17 Este 0 -- -- 80
2018-05-07 23:00:00 18.9 9 Nordeste 14 Norte 0 -- -- 77
2018-05-07 22:00:00 19.5 4 Sudoeste 10 Este 0 -- -- 73
2018-05-07 21:00:00 20.2 10 Este 17 Este 0 -- -- 70
2018-05-07 20:00:00 21.3 11 Sudeste 22 Sudeste 0 -- -- 70
2018-05-07 19:00:00 21.4 9 Sudeste 20 Sudeste 0 -- -- 67
2018-05-07 18:00:00 22.8 10 Sudeste 24 Sudeste 0 -- -- 61
2018-05-07 17:00:00 24.7 2 Norte 18 Noroeste 0 -- -- 52
2018-05-07 16:00:00 26 10 Oeste 20 Oeste 0 -- -- 47
2018-05-07 15:00:00 23.9 5 Oeste 15 Oeste 0 -- -- 58
2018-05-07 14:00:00 21.8 5 Sudoeste 9 Sudoeste 0 -- -- 67
2018-05-07 13:00:00 20.9 4 Sudoeste 10 Noroeste 0 -- -- 69
2018-05-07 12:00:00 20.1 3 Sudoeste 9 Oeste 0 -- -- 72
2018-05-07 11:00:00 18.5 2 Sudoeste 5 Norte 0 -- -- 76
2018-05-07 10:00:00 17.2 0 Calma 4 Noroeste 0 -- -- 86
2018-05-07 09:00:00 16.1 0 Calma 5 Oeste 0 -- -- 91
2018-05-07 08:00:00 15.9 2 Nordeste 4 Nordeste 0 -- -- 90
2018-05-07 07:00:00 15.8 0 Calma 4 Oeste 0 -- -- 90
2018-05-07 06:00:00 15.8 0 Calma 3 Sur 0.2 -- -- 90
2018-05-07 05:00:00 16.1 0 Calma 6 Sudeste 0 -- -- 89
2018-05-07 04:00:00 16 4 Sudoeste 8 Sudoeste 0 -- -- 89
2018-05-07 03:00:00 16.6 3 Norte 11 Norte 0 -- -- 85
2018-05-07 02:00:00 17.3 7 Nordeste 17 Este 0 -- -- 79
2018-05-07 01:00:00 17.6 3 Sudoeste 12 Este 0 -- -- 74
2018-05-07 00:00:00 18.3 7 Este 17 Este 0 -- -- 69
2018-05-06 23:00:00 18.9 12 Este 18 Sudeste 0 -- -- 66
2018-05-06 22:00:00 19.3 13 Sudeste 19 Sudeste 0 -- -- 63
2018-05-06 21:00:00 21 11 Sudeste 17 Sudeste 0 -- -- 57
2018-05-06 20:00:00 22.6 6 Sur 12 Sur 0 -- -- 52
2018-05-06 19:00:00 23.5 5 Sur 15 Este 0 -- -- 48
2018-05-06 18:00:00 22.9 9 Sur 18 Sur 0 -- -- 52
2018-05-06 17:00:00 23.1 9 Sudeste 17 Este 0 -- -- 53
2018-05-06 16:00:00 23.4 6 Sudeste 12 Este 0 -- -- 50
2018-05-06 15:00:00 23.3 5 Oeste 15 Sudoeste 0 -- -- 53
2018-05-06 14:00:00 23 5 Nordeste 15 Sudeste 0 -- -- 54
2018-05-06 13:00:00 22.4 7 Sudoeste 14 Noroeste 0 -- -- 52
2018-05-06 12:00:00 20.6 3 Sudeste 11 Oeste 0 -- -- 61
2018-05-06 11:00:00 19 3 Noroeste 6 Noroeste 0 -- -- 67
2018-05-06 10:00:00 15.9 3 Sudoeste 6 Sur 0 -- -- 78
2018-05-06 09:00:00 13.7 2 Oeste 4 Noroeste 0 -- -- 87
2018-05-06 08:00:00 11.9 0 Calma 3 Oeste 0 -- -- 91
2018-05-06 07:00:00 11.4 2 Este 3 Oeste 0 -- -- 91
2018-05-06 06:00:00 12.1 3 Sudoeste 6 Sudoeste 0 -- -- 90
2018-05-06 05:00:00 12.6 3 Nordeste 6 Nordeste 0 -- -- 89
2018-05-06 04:00:00 13.3 3 Noroeste 5 Noroeste 0 -- -- 84
2018-05-06 03:00:00 13.7 5 Noroeste 9 Noroeste 0 -- -- 85
2018-05-06 02:00:00 15 2 Norte 5 Noroeste 0 -- -- 79
2018-05-06 01:00:00 15.5 2 Norte 7 Norte 0 -- -- 77
2018-05-06 00:00:00 16.2 2 Noroeste 5 Oeste 0 -- -- 73
2018-05-05 23:00:00 17.2 4 Oeste 11 Nordeste 0 -- -- 70
2018-05-05 22:00:00 18.3 8 Nordeste 12 Este 0 -- -- 63
2018-05-05 21:00:00 18.9 2 Norte 13 Nordeste 0 -- -- 61
2018-05-05 20:00:00 19.2 8 Nordeste 21 Nordeste 0 -- -- 58
2018-05-05 19:00:00 19.5 21 Nordeste 27 Nordeste 0 -- -- 56
2018-05-05 18:00:00 21.4 13 Nordeste 19 Nordeste 0 -- -- 49
2018-05-05 17:00:00 22.1 13 Nordeste 20 Nordeste 0 -- -- 48
2018-05-05 16:00:00 23.3 13 Nordeste 23 Nordeste 0 -- -- 44
2018-05-05 15:00:00 22.7 4 Noroeste 14 Sudoeste 0 -- -- 43
2018-05-05 14:00:00 21.3 6 Sur 14 Sur 0 -- -- 45
2018-05-05 13:00:00 19.7 5 Oeste 18 Oeste 0 -- -- 50
2018-05-05 12:00:00 17.6 4 Sudoeste 16 Sudoeste 0 -- -- 54
2018-05-05 11:00:00 15.5 4 Sudeste 11 Sudoeste 0 -- -- 60
2018-05-05 10:00:00 13.3 3 Sudoeste 10 Sur 0 -- -- 64
2018-05-05 09:00:00 11.7 3 Oeste 10 Oeste 0 -- -- 68
2018-05-05 08:00:00 10.1 3 Oeste 14 Sudoeste 0 -- -- 73
2018-05-05 07:00:00 9.6 7 Oeste 13 Oeste 0 -- -- 74
2018-05-05 06:00:00 10.1 5 Sudoeste 10 Sudoeste 0 -- -- 71
2018-05-05 05:00:00 10.6 5 Sudoeste 18 Sudoeste 0 -- -- 70
2018-05-05 04:00:00 11.2 5 Sur 17 Oeste 0 -- -- 68
2018-05-05 03:00:00 11.8 8 Sudoeste 16 Sudoeste 0 -- -- 66
2018-05-05 02:00:00 12.6 9 Sudoeste 16 Sudoeste 0 -- -- 63
2018-05-05 01:00:00 13 7 Sur 19 Sudoeste 0 -- -- 62
2018-05-05 00:00:00 14.1 6 Sudoeste 17 Sudoeste 0 -- -- 59
2018-05-04 23:00:00 15.3 13 Sudoeste 20 Sudoeste 0 -- -- 57
2018-05-04 22:00:00 17.2 12 Oeste 19 Sudoeste 0 -- -- 52
2018-05-04 21:00:00 19.2 14 Oeste 33 Oeste 0 -- -- 48
2018-05-04 20:00:00 21.2 20 Oeste 45 Oeste 0 -- -- 43
2018-05-04 19:00:00 22.1 22 Oeste 37 Oeste 0 -- -- 40
2018-05-04 18:00:00 22.6 18 Oeste 35 Sudoeste 0 -- -- 38
2018-05-04 17:00:00 22.9 17 Oeste 26 Oeste 0 -- -- 37
2018-05-04 16:00:00 23.3 10 Oeste 26 Oeste 0 -- -- 36
2018-05-04 15:00:00 23.1 15 Oeste 27 Oeste 0 -- -- 37
2018-05-04 14:00:00 21.8 13 Oeste 28 Oeste 0 -- -- 40
2018-05-04 13:00:00 20.1 13 Sudoeste 31 Oeste 0 -- -- 43
2018-05-04 12:00:00 17.9 15 Oeste 27 Oeste 0 -- -- 49
2018-05-04 11:00:00 15.5 14 Oeste 26 Oeste 0 -- -- 57
2018-05-04 10:00:00 13 13 Sudoeste 22 Sudoeste 0 -- -- 62
2018-05-04 09:00:00 10.8 12 Sudoeste 22 Sudoeste 0 -- -- 67
2018-05-04 08:00:00 9.1 9 Sudoeste 19 Sudoeste 0 -- -- 73
2018-05-04 07:00:00 8.4 4 Oeste 20 Sudoeste 0 -- -- 72
2018-05-04 06:00:00 8.6 11 Sudoeste 20 Oeste 0 -- -- 71
2018-05-04 05:00:00 9 12 Sudoeste 23 Sudoeste 0 -- -- 69
2018-05-04 04:00:00 9.2 17 Sudoeste 26 Sudoeste 0 -- -- 67
2018-05-04 03:00:00 9.4 14 Sudoeste 28 Sudoeste 0 -- -- 65
2018-05-04 02:00:00 10 13 Sudoeste 24 Sudoeste 0 -- -- 62
2018-05-04 01:00:00 11 11 Oeste 21 Oeste 0 -- -- 60
2018-05-04 00:00:00 12.2 15 Sudoeste 25 Sudoeste 0 -- -- 57
2018-05-03 23:00:00 13.7 14 Oeste 35 Oeste 0 -- -- 53
2018-05-03 22:00:00 15.2 21 Oeste 36 Sudoeste 0 -- -- 48
2018-05-03 21:00:00 16.4 21 Oeste 49 Oeste 0 -- -- 45
2018-05-03 20:00:00 17.8 29 Oeste 47 Oeste 0 -- -- 42
2018-05-03 19:00:00 19 29 Oeste 49 Oeste 0 -- -- 43
2018-05-03 18:00:00 20.5 29 Noroeste 49 Oeste 0 -- -- 41
2018-05-03 17:00:00 22.1 31 Oeste 45 Oeste 0 -- -- 38
2018-05-03 16:00:00 21.4 26 Noroeste 40 Oeste 0 -- -- 40
2018-05-03 15:00:00 20 27 Oeste 43 Noroeste 0 -- -- 41
2018-05-03 14:00:00 19.6 25 Oeste 36 Oeste 0 -- -- 42
2018-05-03 13:00:00 18.8 23 Oeste 41 Oeste 0 -- -- 45
2018-05-03 12:00:00 16.9 23 Oeste 44 Oeste 0 -- -- 51
2018-05-03 11:00:00 15.4 30 Oeste 47 Noroeste 0 -- -- 54
2018-05-03 10:00:00 14.9 28 Noroeste 51 Noroeste 0 -- -- 57
2018-05-03 09:00:00 14.1 22 Noroeste 42 Noroeste 0 -- -- 66
2018-05-03 08:00:00 12.7 19 Noroeste 31 Noroeste 0 -- -- 74
2018-05-03 07:00:00 12.1 12 Noroeste 18 Noroeste 0 -- -- 78
2018-05-03 06:00:00 12.2 8 Noroeste 25 Noroeste 0 -- -- 77
2018-05-03 05:00:00 12.8 19 Oeste 30 Oeste 0 -- -- 74
2018-05-03 04:00:00 12.8 16 Oeste 29 Oeste 0 -- -- 72
2018-05-03 03:00:00 13.1 16 Oeste 29 Oeste 0 -- -- 67
2018-05-03 02:00:00 13.2 15 Noroeste 30 Oeste 0 -- -- 65
2018-05-03 01:00:00 13.6 13 Oeste 26 Oeste 0 -- -- 62
2018-05-03 00:00:00 14.4 18 Noroeste 42 Oeste 0 -- -- 58
2018-05-02 23:00:00 15.2 22 Noroeste 45 Oeste 0 -- -- 55
2018-05-02 22:00:00 16.3 26 Oeste 50 Oeste 0 -- -- 52
2018-05-02 21:00:00 17.7 28 Oeste 48 Oeste 0 -- -- 47
2018-05-02 20:00:00 19.5 24 Oeste 43 Oeste 0 -- -- 40
2018-05-02 19:00:00 21 21 Noroeste 35 Noroeste 0 -- -- 34
2018-05-02 18:00:00 21.2 19 Noroeste 40 Oeste 0 -- -- 31
2018-05-02 17:00:00 20.7 27 Oeste 48 Noroeste 0 -- -- 33
2018-05-02 16:00:00 20.3 26 Noroeste 44 Noroeste 0 -- -- 32
2018-05-02 15:00:00 19.9 28 Oeste 42 Oeste 0 -- -- 32
2018-05-02 14:00:00 19.3 25 Noroeste 45 Oeste 0 -- -- 35
2018-05-02 13:00:00 18.8 21 Oeste 40 Oeste 0 -- -- 34
2018-05-02 12:00:00 15.7 5 Noroeste 15 Oeste 0 -- -- 49
2018-05-02 11:00:00 13 5 Oeste 15 Oeste 0 -- -- 56
2018-05-02 10:00:00 10.1 5 Noroeste 9 Noroeste 0 -- -- 65
2018-05-02 09:00:00 7.4 3 Norte 6 Norte 0 -- -- 73
2018-05-02 08:00:00 5.3 2 Sudoeste 4 Oeste 0 -- -- 83
2018-05-02 07:00:00 4.9 0 Calma 5 Noroeste 0 -- -- 84
2018-05-02 06:00:00 5.3 0 Calma 6 Oeste 0 -- -- 82
2018-05-02 05:00:00 6.4 0 Calma 5 Oeste 0 -- -- 78
2018-05-02 04:00:00 7.1 0 Calma 13 Sudoeste 0 -- -- 75
2018-05-02 03:00:00 8.5 10 Sudoeste 15 Sudoeste 0 -- -- 67
2018-05-02 02:00:00 8.8 3 Sudoeste 12 Sudoeste 0 -- -- 76
2018-05-02 01:00:00 9.3 0 Calma 8 Este 0 -- -- 77
2018-05-02 00:00:00 9.9 3 Este 14 Sudeste 0 -- -- 74
2018-05-01 23:00:00 11.1 7 Este 12 Este 0 -- -- 67
2018-05-01 22:00:00 12.4 4 Este 10 Este 0 -- -- 61
2018-05-01 21:00:00 13.6 4 Sudeste 12 Sudeste 0 -- -- 54
2018-05-01 20:00:00 14.2 4 Sudeste 21 Sudeste 0 -- -- 52
2018-05-01 19:00:00 13.3 11 Sudeste 33 Nordeste 0 -- -- 57
2018-05-01 18:00:00 14.8 23 Norte 49 Nordeste 0 -- -- 46
2018-05-01 17:00:00 19.1 5 Noroeste 21 Sudoeste 0 -- -- 34
2018-05-01 16:00:00 18.7 9 Oeste 21 Sudoeste 0 -- -- 35
2018-05-01 15:00:00 17.6 7 Sudoeste 20 Oeste 0 -- -- 41
2018-05-01 14:00:00 16.5 8 Noroeste 19 Oeste 0 -- -- 48
2018-05-01 13:00:00 14.5 7 Sudoeste 21 Oeste 0 -- -- 54
2018-05-01 12:00:00 13.2 9 Sudoeste 24 Oeste 0 -- -- 57
2018-05-01 11:00:00 11.3 6 Sudoeste 16 Sudoeste 0 -- -- 62
2018-05-01 10:00:00 9.5 6 Sudoeste 15 Oeste 0 -- -- 72
2018-05-01 09:00:00 8.5 5 Oeste 12 Oeste 0 -- -- 74
2018-05-01 08:00:00 7.1 3 Noroeste 15 Sudoeste 0 -- -- 83
2018-05-01 07:00:00 6.7 4 Sudoeste 23 Sudoeste 0 -- -- 82
2018-05-01 06:00:00 6.9 12 Sudoeste 24 Sudoeste 0 -- -- 81
2018-05-01 05:00:00 7.3 12 Sudoeste 23 Sudoeste 0 -- -- 81
2018-05-01 04:00:00 7.7 13 Sudoeste 20 Sudoeste 0 -- -- 77
2018-05-01 03:00:00 8.8 9 Oeste 16 Oeste 0 -- -- 70
2018-05-01 02:00:00 9.2 8 Sudoeste 18 Oeste 0 -- -- 70
2018-05-01 01:00:00 10.3 9 Oeste 16 Oeste 0 -- -- 63
2018-05-01 00:00:00 11.5 6 Oeste 18 Oeste 0 -- -- 59
2018-04-30 23:00:00 12.2 5 Noroeste 33 Noroeste 0 -- -- 55
2018-04-30 22:00:00 13.3 11 Noroeste 28 Sudoeste 0 -- -- 49
2018-04-30 21:00:00 15.2 9 Oeste 19 Oeste 0 -- -- 41
2018-04-30 20:00:00 16.6 4 Oeste 11 Oeste 0 -- -- 37
2018-04-30 19:00:00 17 3 Oeste 14 Oeste 0 -- -- 36
2018-04-30 18:00:00 17.1 14 Oeste 29 Oeste 0 -- -- 36
2018-04-30 17:00:00 17.1 7 Oeste 27 Oeste 0 -- -- 35
2018-04-30 16:00:00 17.2 14 Oeste 27 Oeste 0 -- -- 37
2018-04-30 15:00:00 16.9 14 Oeste 29 Oeste 0 -- -- 34
2018-04-30 14:00:00 15.8 20 Oeste 32 Sudoeste 0 -- -- 42
2018-04-30 13:00:00 15.2 15 Oeste 29 Oeste 0 -- -- 45
2018-04-30 12:00:00 14.8 12 Oeste 28 Oeste 0 -- -- 48
2018-04-30 11:00:00 13.2 10 Oeste 32 Oeste 0 -- -- 57
2018-04-30 10:00:00 11.8 14 Oeste 27 Oeste 0 -- -- 58
2018-04-30 09:00:00 10.4 3 Norte 18 Oeste 0 -- -- 69
2018-04-30 08:00:00 9 9 Sudoeste 19 Sudoeste 0 -- -- 70
2018-04-30 07:00:00 8.8 7 Oeste 15 Sudoeste 0 -- -- 72
2018-04-30 06:00:00 8.7 3 Nordeste 13 Noroeste 0 -- -- 77
2018-04-30 05:00:00 9.3 4 Sudoeste 17 Sudoeste 0 -- -- 75
2018-04-30 04:00:00 9.2 2 Norte 12 Noroeste 0 -- -- 78
2018-04-30 03:00:00 10 8 Noroeste 20 Noroeste 0 -- -- 76
2018-04-30 02:00:00 10.8 16 Oeste 27 Oeste 0 -- -- 66
2018-04-30 01:00:00 11.3 2 Noroeste 15 Oeste 0 -- -- 68
2018-04-30 00:00:00 11.4 3 Sudoeste 7 Sudeste 0 -- -- 77
2018-04-29 23:00:00 11.6 4 Sur 8 Sur 0 -- -- 78
2018-04-29 22:00:00 12.5 0 Calma 9 Sudeste 0 -- -- 70
2018-04-29 21:00:00 13 2 Oeste 8 Noroeste 0 -- -- 70
2018-04-29 20:00:00 14.1 9 Noroeste 30 Noroeste 0 -- -- 63
2018-04-29 19:00:00 14.7 22 Noroeste 44 Noroeste 0 -- -- 62
2018-04-29 18:00:00 16.6 19 Noroeste 32 Oeste 0 -- -- 58
2018-04-29 17:00:00 14.4 17 Noroeste 41 Noroeste 0 -- -- 63
2018-04-29 16:00:00 14 35 Noroeste 52 Noroeste 0 -- -- 67
2018-04-29 15:00:00 15.9 34 Oeste 49 Oeste 0 -- -- 54
2018-04-29 14:00:00 14.2 3 Sur 11 Oeste 0 -- -- 70
2018-04-29 13:00:00 10.9 14 Oeste 46 Sudoeste 1.4 -- -- 81
2018-04-29 12:00:00 13.8 8 Sur 14 Sudoeste 0 -- -- 76
2018-04-29 11:00:00 13.3 3 Nordeste 18 Este 0 -- -- 82
2018-04-29 10:00:00 12 4 Este 29 Nordeste 0.2 -- -- 88
2018-04-29 09:00:00 11.6 5 Nordeste 15 Sudoeste 0.6 -- -- 94
2018-04-29 08:00:00 11.4 3 Este 8 Noroeste 0 -- -- 94
2018-04-29 07:00:00 11.5 7 Noroeste 12 Noroeste 0 -- -- 92
2018-04-29 06:00:00 11.3 4 Norte 50 Sudoeste 10.6 -- -- 92
2018-04-29 05:00:00 16 10 Sudeste 25 Sur 0 -- -- 82
2018-04-29 04:00:00 16.2 4 Sur 19 Sur 0 -- -- 81
2018-04-29 03:00:00 16.2 6 Sudeste 18 Sudeste 0 -- -- 82
2018-04-29 02:00:00 16.1 5 Sudeste 23 Sudeste 0.2 -- -- 86
2018-04-29 01:00:00 16.6 12 Sudeste 34 Este 0.2 -- -- 83
2018-04-29 00:00:00 17.2 12 Sudeste 31 Sudeste 0 -- -- 77
2018-04-28 23:00:00 16.9 16 Sudeste 36 Sudeste 0 -- -- 76
2018-04-28 22:00:00 17 19 Sudeste 34 Sudeste 0 -- -- 75
2018-04-28 21:00:00 17.5 20 Sudeste 41 Sudeste 0 -- -- 72
2018-04-28 20:00:00 18.8 18 Sudeste 42 Sudeste 0 -- -- 68
2018-04-28 19:00:00 19.8 20 Sudeste 47 Sudeste 0 -- -- 66
2018-04-28 18:00:00 20.7 21 Sudeste 42 Este 0 -- -- 61
2018-04-28 17:00:00 21.9 23 Sudeste 36 Sur 0 -- -- 57
2018-04-28 16:00:00 21.3 22 Sudeste 35 Sudeste 0 -- -- 61
2018-04-28 15:00:00 22.1 12 Sudeste 26 Este 0 -- -- 59
2018-04-28 14:00:00 21.5 11 Este 25 Nordeste 0 -- -- 60
2018-04-28 13:00:00 21 9 Este 20 Este 0 -- -- 61
2018-04-28 12:00:00 19 5 Nordeste 12 Nordeste 0 -- -- 66
2018-04-28 11:00:00 16.1 5 Sur 10 Sur 0 -- -- 68
2018-04-28 10:00:00 13.6 5 Sur 13 Sur 0 -- -- 74
2018-04-28 09:00:00 13.1 6 Sur 12 Sur 0 -- -- 77
2018-04-28 08:00:00 12.9 3 Sur 13 Sur 0 -- -- 82
2018-04-28 07:00:00 13.1 5 Sur 10 Sudeste 0 -- -- 83
2018-04-28 06:00:00 13.7 6 Sudeste 13 Sur 0 -- -- 82
2018-04-28 05:00:00 15.1 6 Sur 19 Sudeste 0 -- -- 88
2018-04-28 04:00:00 16.2 8 Sudeste 17 Sudeste 0 -- -- 86
2018-04-28 03:00:00 16.4 5 Sur 13 Nordeste 0 -- -- 84
2018-04-28 02:00:00 17 5 Este 22 Sudeste 0 -- -- 85
2018-04-28 01:00:00 17.7 11 Sudeste 25 Sudeste 0 -- -- 81
2018-04-28 00:00:00 17.6 17 Sudeste 28 Sudeste 0 -- -- 80
2018-04-27 23:00:00 18.8 12 Sudeste 23 Sudeste 0 -- -- 73
2018-04-27 22:00:00 20 4 Este 14 Este 0 -- -- 65
2018-04-27 21:00:00 20.8 8 Sudeste 24 Sur 0 -- -- 63
2018-04-27 20:00:00 22.8 13 Sur 22 Sudeste 0 -- -- 52
2018-04-27 19:00:00 24.4 8 Sur 15 Sudoeste 0 -- -- 51
2018-04-27 18:00:00 25.6 7 Sudeste 12 Sur 0 -- -- 43
2018-04-27 17:00:00 27 4 Sudoeste 13 Nordeste 0 -- -- 41
2018-04-27 16:00:00 26.9 6 Este 18 Nordeste 0 -- -- 41
2018-04-27 15:00:00 25.1 7 Noroeste 16 Noroeste 0 -- -- 47
2018-04-27 14:00:00 23.6 8 Noroeste 18 Oeste 0 -- -- 54
2018-04-27 13:00:00 22.4 6 Noroeste 13 Oeste 0 -- -- 58
2018-04-27 12:00:00 20.1 3 Oeste 10 Oeste 0 -- -- 69
2018-04-27 11:00:00 17.8 4 Oeste 10 Oeste 0 -- -- 77
2018-04-27 10:00:00 15.2 3 Norte 14 Norte 0 -- -- 90
2018-04-27 09:00:00 14.2 3 Nordeste 10 Noroeste 0 -- -- 94
2018-04-27 08:00:00 12.3 5 Noroeste 12 Noroeste 0 -- -- 90
2018-04-27 07:00:00 12.6 0 Calma 6 Oeste 0 -- -- 88
2018-04-27 06:00:00 12.9 4 Oeste 5 Oeste 0 -- -- 87
2018-04-27 05:00:00 13.2 3 Oeste 9 Este 0 -- -- 86
2018-04-27 04:00:00 14.3 0 Calma 14 Este 0 -- -- 85
2018-04-27 03:00:00 15.1 5 Este 13 Este 0 -- -- 83
2018-04-27 02:00:00 15.9 7 Este 14 Este 0 -- -- 81
2018-04-27 01:00:00 16.8 8 Sudeste 18 Sudeste 0 -- -- 77
2018-04-27 00:00:00 17.5 12 Sudeste 20 Sudeste 0 -- -- 72
2018-04-26 23:00:00 19.1 8 Este 15 Este 0 -- -- 49
2018-04-26 22:00:00 20.3 4 Sudeste 17 Sur 0 -- -- 45
2018-04-26 21:00:00 21.6 8 Sur 16 Sudeste 0 -- -- 42
2018-04-26 20:00:00 23.7 9 Sudoeste 19 Sudoeste 0 -- -- 39
2018-04-26 19:00:00 25 10 Sudoeste 26 Sudoeste 0 -- -- 36
2018-04-26 18:00:00 25.6 12 Sudoeste 23 Sudoeste 0 -- -- 37
2018-04-26 17:00:00 25.6 12 Oeste 30 Oeste 0 -- -- 38
2018-04-26 16:00:00 24.6 12 Oeste 30 Oeste 0 -- -- 40
2018-04-26 15:00:00 23.7 13 Oeste 28 Oeste 0 -- -- 43
2018-04-26 14:00:00 22.3 9 Oeste 21 Sudoeste 0 -- -- 48
2018-04-26 13:00:00 21 11 Oeste 28 Oeste 0 -- -- 52
2018-04-26 12:00:00 18.7 11 Sudoeste 22 Oeste 0 -- -- 57
2018-04-26 11:00:00 17.5 9 Sudoeste 19 Oeste 0 -- -- 62
2018-04-26 10:00:00 15.7 7 Sudoeste 18 Sudoeste 0 -- -- 67
2018-04-26 09:00:00 13.9 10 Sudoeste 20 Sudoeste 0 -- -- 73
2018-04-26 08:00:00 12.6 4 Sur 13 Sudoeste 0 -- -- 78
2018-04-26 07:00:00 12.6 3 Sudoeste 15 Oeste 0 -- -- 77
2018-04-26 06:00:00 12.9 6 Sudoeste 14 Sur 0 -- -- 75
2018-04-26 05:00:00 13.4 8 Sudoeste 15 Sur 0 -- -- 73
2018-04-26 04:00:00 14 8 Sudoeste 21 Sudoeste 0 -- -- 72
2018-04-26 03:00:00 14.9 14 Sudoeste 23 Sudoeste 0 -- -- 70
2018-04-26 02:00:00 16 6 Oeste 28 Noroeste 0 -- -- 67
2018-04-26 01:00:00 16.8 16 Noroeste 26 Noroeste 0 -- -- 64
2018-04-26 00:00:00 18.1 10 Noroeste 18 Noroeste 0 -- -- 55
2018-04-25 23:00:00 20 4 Este 29 Noroeste 0 -- -- 45
2018-04-25 22:00:00 21.3 13 Sudeste 24 Sudeste 0 -- -- 41
2018-04-25 21:00:00 22.5 13 Sudeste 25 Sudeste 0 -- -- 36
2018-04-25 20:00:00 23.7 12 Sudeste 35 Sur 0 -- -- 33
2018-04-25 19:00:00 25 24 Sudeste 40 Sur 0 -- -- 27
2018-04-25 18:00:00 27.2 24 Sudeste 38 Sudeste 0 -- -- 29
2018-04-25 17:00:00 28.9 7 Sur 16 Este 0 -- -- 34
2018-04-25 16:00:00 28.4 5 Sudoeste 13 Sudoeste 0 -- -- 32
2018-04-25 15:00:00 27.3 5 Sur 14 Sur 0 -- -- 40
2018-04-25 14:00:00 25.7 4 Sudoeste 12 Sudoeste 0 -- -- 41
2018-04-25 13:00:00 23.3 6 Noroeste 11 Noroeste 0 -- -- 50
2018-04-25 12:00:00 20.8 4 Oeste 11 Oeste 0 -- -- 58
2018-04-25 11:00:00 18.2 4 Noroeste 9 Noroeste 0 -- -- 68
2018-04-25 10:00:00 15.7 4 Oeste 8 Oeste 0 -- -- 74
2018-04-25 09:00:00 13.7 2 Sur 10 Norte 0 -- -- 80
2018-04-25 08:00:00 11.4 2 Norte 8 Noroeste 0 -- -- 87
2018-04-25 07:00:00 10.8 0 Calma 5 Sudoeste 0 -- -- 87
2018-04-25 06:00:00 11.9 0 Calma 8 Noroeste 0 -- -- 79
2018-04-25 05:00:00 12.4 5 Noroeste 9 Noroeste 0 -- -- 78
2018-04-25 04:00:00 13.7 0 Calma 8 Noroeste 0 -- -- 70
2018-04-25 03:00:00 15.1 2 Norte 5 Noroeste 0 -- -- 61
2018-04-25 02:00:00 17.9 5 Sudeste 13 Sudeste 0 -- -- 47
2018-04-25 01:00:00 18.8 9 Este 17 Este 0 -- -- 44
2018-04-25 00:00:00 19.5 13 Este 24 Este 0 -- -- 42
2018-04-24 23:00:00 20.5 12 Sudeste 22 Sudeste 0 -- -- 41
2018-04-24 22:00:00 21.8 13 Sudeste 21 Sudeste 0 -- -- 38
2018-04-24 21:00:00 23.1 9 Sudeste 19 Sudeste 0 -- -- 35
2018-04-24 20:00:00 24.7 12 Sur 24 Sudeste 0 -- -- 33
2018-04-24 19:00:00 26 15 Sudeste 29 Sudeste 0 -- -- 31
2018-04-24 18:00:00 27.9 9 Este 19 Este 0 -- -- 38
2018-04-24 17:00:00 27.8 8 Nordeste 22 Nordeste 0 -- -- 38
2018-04-24 16:00:00 27.3 7 Nordeste 20 Nordeste 0 -- -- 38
2018-04-24 15:00:00 26.4 6 Nordeste 19 Nordeste 0 -- -- 40
2018-04-24 14:00:00 25 8 Sudeste 17 Sudeste 0 -- -- 42
2018-04-24 13:00:00 23.3 4 Sur 13 Nordeste 0 -- -- 48
2018-04-24 12:00:00 21 4 Este 11 Oeste 0 -- -- 62
2018-04-24 11:00:00 18.3 4 Sur 9 Oeste 0 -- -- 74
2018-04-24 10:00:00 15.7 3 Oeste 6 Nordeste 0 -- -- 83
2018-04-24 09:00:00 12.8 2 Noroeste 5 Noroeste 0 -- -- 91
2018-04-24 08:00:00 11.6 3 Norte 8 Noroeste 0 -- -- 93
2018-04-24 07:00:00 12 4 Noroeste 6 Noroeste 0 -- -- 92
2018-04-24 06:00:00 12.9 0 Calma 5 Oeste 0 -- -- 89
2018-04-24 05:00:00 13.3 3 Noroeste 8 Noroeste 0 -- -- 89
2018-04-24 04:00:00 13.4 3 Noroeste 6 Noroeste 0 -- -- 90
2018-04-24 03:00:00 13.6 2 Norte 4 Norte 0 -- -- 88
2018-04-24 02:00:00 14.1 3 Oeste 11 Norte 0 -- -- 86
2018-04-24 01:00:00 15.7 5 Norte 10 Noroeste 0 -- -- 80
2018-04-24 00:00:00 16.3 6 Noroeste 11 Noroeste 0 -- -- 78